sensor_id;sensor_type;location;lat;lon;timestamp;P1;durP1;ratioP1;P2;durP2;ratioP2
70414;SDS011;57837;52.064;113.478;2024-01-15T00:01:47;62.75;;;39.33;;
70414;SDS011;57837;52.064;113.478;2024-01-15T00:04:50;49.40;;;22.50;;
70414;SDS011;57837;52.064;113.478;2024-01-15T00:07:55;90.87;;;65.63;;
70414;SDS011;57837;52.064;113.478;2024-01-15T00:11:02;112.07;;;60.97;;
70414;SDS011;57837;52.064;113.478;2024-01-15T00:14:05;123.45;;;68.05;;
70414;SDS011;57837;52.064;113.478;2024-01-15T00:17:09;131.57;;;80.90;;
70414;SDS011;57837;52.064;113.478;2024-01-15T00:20:14;157.48;;;54.75;;
70414;SDS011;57837;52.064;113.478;2024-01-15T00:23:18;51.08;;;40.85;;
70414;SDS011;57837;52.064;113.478;2024-01-15T00:26:22;88.47;;;52.47;;
70414;SDS011;57837;52.064;113.478;2024-01-15T00:29:25;90.80;;;56.10;;
70414;SDS011;57837;52.064;113.478;2024-01-15T00:32:29;79.30;;;53.22;;
70414;SDS011;57837;52.064;113.478;2024-01-15T00:35:33;70.82;;;46.28;;
70414;SDS011;57837;52.064;113.478;2024-01-15T00:38:37;59.73;;;31.83;;
70414;SDS011;57837;52.064;113.478;2024-01-15T00:41:40;78.55;;;41.00;;
70414;SDS011;57837;52.064;113.478;2024-01-15T00:44:44;85.22;;;51.20;;
70414;SDS011;57837;52.064;113.478;2024-01-15T00:47:48;64.93;;;41.80;;
70414;SDS011;57837;52.064;113.478;2024-01-15T00:50:52;137.18;;;65.80;;
70414;SDS011;57837;52.064;113.478;2024-01-15T00:53:56;74.75;;;39.85;;
70414;SDS011;57837;52.064;113.478;2024-01-15T00:57:00;50.83;;;38.85;;
70414;SDS011;57837;52.064;113.478;2024-01-15T01:00:03;69.20;;;46.58;;
70414;SDS011;57837;52.064;113.478;2024-01-15T01:03:08;88.40;;;62.92;;
70414;SDS011;57837;52.064;113.478;2024-01-15T01:06:11;91.65;;;47.00;;
70414;SDS011;57837;52.064;113.478;2024-01-15T01:09:15;46.27;;;32.37;;
70414;SDS011;57837;52.064;113.478;2024-01-15T01:12:18;90.03;;;52.90;;
70414;SDS011;57837;52.064;113.478;2024-01-15T01:15:21;61.70;;;41.30;;
70414;SDS011;57837;52.064;113.478;2024-01-15T01:18:25;112.57;;;53.70;;
70414;SDS011;57837;52.064;113.478;2024-01-15T01:21:29;178.05;;;85.88;;
70414;SDS011;57837;52.064;113.478;2024-01-15T01:24:33;132.93;;;64.22;;
70414;SDS011;57837;52.064;113.478;2024-01-15T01:27:37;135.82;;;70.88;;
70414;SDS011;57837;52.064;113.478;2024-01-15T01:30:40;146.35;;;69.10;;
70414;SDS011;57837;52.064;113.478;2024-01-15T01:33:43;149.60;;;73.25;;
70414;SDS011;57837;52.064;113.478;2024-01-15T01:36:46;163.38;;;75.15;;
70414;SDS011;57837;52.064;113.478;2024-01-15T01:39:50;121.20;;;74.60;;
70414;SDS011;57837;52.064;113.478;2024-01-15T01:42:53;89.03;;;52.50;;
70414;SDS011;57837;52.064;113.478;2024-01-15T01:45:56;91.65;;;50.85;;
70414;SDS011;57837;52.064;113.478;2024-01-15T01:49:03;78.23;;;48.17;;
70414;SDS011;57837;52.064;113.478;2024-01-15T01:52:09;77.93;;;38.08;;
70414;SDS011;57837;52.064;113.478;2024-01-15T01:55:12;95.82;;;57.53;;
70414;SDS011;57837;52.064;113.478;2024-01-15T01:58:17;155.18;;;69.78;;
70414;SDS011;57837;52.064;113.478;2024-01-15T02:01:21;107.25;;;68.82;;
70414;SDS011;57837;52.064;113.478;2024-01-15T02:04:26;92.20;;;51.40;;
70414;SDS011;57837;52.064;113.478;2024-01-15T02:07:30;104.18;;;53.35;;
70414;SDS011;57837;52.064;113.478;2024-01-15T02:10:35;58.97;;;35.33;;
70414;SDS011;57837;52.064;113.478;2024-01-15T02:13:39;124.20;;;54.20;;
70414;SDS011;57837;52.064;113.478;2024-01-15T02:16:43;27.52;;;23.17;;
70414;SDS011;57837;52.064;113.478;2024-01-15T02:19:49;85.10;;;29.73;;
70414;SDS011;57837;52.064;113.478;2024-01-15T02:22:54;89.18;;;42.00;;
70414;SDS011;57837;52.064;113.478;2024-01-15T02:26:04;75.60;;;46.28;;
70414;SDS011;57837;52.064;113.478;2024-01-15T02:29:08;87.97;;;55.28;;
70414;SDS011;57837;52.064;113.478;2024-01-15T02:32:11;186.82;;;95.28;;
70414;SDS011;57837;52.064;113.478;2024-01-15T02:35:14;120.10;;;69.20;;
70414;SDS011;57837;52.064;113.478;2024-01-15T02:38:18;183.73;;;85.35;;
70414;SDS011;57837;52.064;113.478;2024-01-15T02:41:22;134.60;;;69.00;;
70414;SDS011;57837;52.064;113.478;2024-01-15T02:44:25;90.28;;;43.83;;
70414;SDS011;57837;52.064;113.478;2024-01-15T02:47:28;109.38;;;64.60;;
70414;SDS011;57837;52.064;113.478;2024-01-15T02:50:31;123.70;;;68.20;;
70414;SDS011;57837;52.064;113.478;2024-01-15T02:53:37;88.90;;;45.65;;
70414;SDS011;57837;52.064;113.478;2024-01-15T02:56:42;67.25;;;45.75;;
70414;SDS011;57837;52.064;113.478;2024-01-15T02:59:46;136.20;;;73.15;;
70414;SDS011;57837;52.064;113.478;2024-01-15T03:02:50;56.78;;;45.72;;
70414;SDS011;57837;52.064;113.478;2024-01-15T03:05:54;155.50;;;72.53;;
70414;SDS011;57837;52.064;113.478;2024-01-15T03:08:57;88.75;;;44.88;;
70414;SDS011;57837;52.064;113.478;2024-01-15T03:12:02;82.90;;;41.47;;
70414;SDS011;57837;52.064;113.478;2024-01-15T03:15:06;130.65;;;62.42;;
70414;SDS011;57837;52.064;113.478;2024-01-15T03:18:10;110.80;;;49.17;;
70414;SDS011;57837;52.064;113.478;2024-01-15T03:21:14;50.47;;;25.70;;
70414;SDS011;57837;52.064;113.478;2024-01-15T03:24:17;115.28;;;44.17;;
70414;SDS011;57837;52.064;113.478;2024-01-15T03:27:20;89.22;;;47.10;;
70414;SDS011;57837;52.064;113.478;2024-01-15T03:30:24;113.05;;;48.05;;
70414;SDS011;57837;52.064;113.478;2024-01-15T03:33:28;52.08;;;35.50;;
70414;SDS011;57837;52.064;113.478;2024-01-15T03:36:32;121.78;;;52.42;;
70414;SDS011;57837;52.064;113.478;2024-01-15T03:39:35;70.45;;;44.35;;
70414;SDS011;57837;52.064;113.478;2024-01-15T03:42:39;115.53;;;57.23;;
70414;SDS011;57837;52.064;113.478;2024-01-15T03:45:42;85.25;;;44.90;;
70414;SDS011;57837;52.064;113.478;2024-01-15T03:48:45;113.85;;;52.45;;
70414;SDS011;57837;52.064;113.478;2024-01-15T03:51:49;73.47;;;39.90;;
70414;SDS011;57837;52.064;113.478;2024-01-15T03:54:53;70.47;;;36.58;;
70414;SDS011;57837;52.064;113.478;2024-01-15T03:57:57;103.43;;;48.30;;
70414;SDS011;57837;52.064;113.478;2024-01-15T04:01:01;69.75;;;37.88;;
70414;SDS011;57837;52.064;113.478;2024-01-15T04:04:05;95.60;;;40.40;;
70414;SDS011;57837;52.064;113.478;2024-01-15T04:07:09;58.05;;;39.15;;
70414;SDS011;57837;52.064;113.478;2024-01-15T04:10:13;93.65;;;46.75;;
70414;SDS011;57837;52.064;113.478;2024-01-15T04:13:16;35.27;;;20.90;;
70414;SDS011;57837;52.064;113.478;2024-01-15T04:16:20;120.50;;;50.17;;
70414;SDS011;57837;52.064;113.478;2024-01-15T04:19:24;123.40;;;56.10;;
70414;SDS011;57837;52.064;113.478;2024-01-15T04:22:28;63.73;;;32.30;;
70414;SDS011;57837;52.064;113.478;2024-01-15T04:25:32;37.67;;;26.88;;
70414;SDS011;57837;52.064;113.478;2024-01-15T04:28:36;64.38;;;32.08;;
70414;SDS011;57837;52.064;113.478;2024-01-15T04:31:39;129.23;;;47.13;;
70414;SDS011;57837;52.064;113.478;2024-01-15T04:34:43;106.20;;;45.33;;
70414;SDS011;57837;52.064;113.478;2024-01-15T04:37:46;65.63;;;41.33;;
70414;SDS011;57837;52.064;113.478;2024-01-15T04:40:49;68.45;;;27.13;;
70414;SDS011;57837;52.064;113.478;2024-01-15T04:43:54;24.40;;;14.87;;
70414;SDS011;57837;52.064;113.478;2024-01-15T04:46:58;15.77;;;11.45;;
70414;SDS011;57837;52.064;113.478;2024-01-15T04:50:00;28.50;;;20.60;;
70414;SDS011;57837;52.064;113.478;2024-01-15T04:53:04;39.03;;;21.37;;
70414;SDS011;57837;52.064;113.478;2024-01-15T04:56:11;59.92;;;25.05;;
70414;SDS011;57837;52.064;113.478;2024-01-15T04:59:15;46.83;;;18.40;;
70414;SDS011;57837;52.064;113.478;2024-01-15T05:02:18;49.58;;;25.25;;
70414;SDS011;57837;52.064;113.478;2024-01-15T05:05:21;15.07;;;9.98;;
70414;SDS011;57837;52.064;113.478;2024-01-15T05:08:24;19.92;;;14.25;;
70414;SDS011;57837;52.064;113.478;2024-01-15T05:11:28;46.63;;;23.10;;
70414;SDS011;57837;52.064;113.478;2024-01-15T05:14:32;19.00;;;13.17;;
70414;SDS011;57837;52.064;113.478;2024-01-15T05:17:36;60.97;;;22.38;;
70414;SDS011;57837;52.064;113.478;2024-01-15T05:20:40;49.20;;;23.88;;
70414;SDS011;57837;52.064;113.478;2024-01-15T05:23:43;35.03;;;15.87;;
70414;SDS011;57837;52.064;113.478;2024-01-15T05:26:47;34.88;;;18.13;;
70414;SDS011;57837;52.064;113.478;2024-01-15T05:29:50;32.83;;;12.82;;
70414;SDS011;57837;52.064;113.478;2024-01-15T05:32:55;35.47;;;16.33;;
70414;SDS011;57837;52.064;113.478;2024-01-15T05:35:58;38.22;;;13.20;;
70414;SDS011;57837;52.064;113.478;2024-01-15T05:39:02;30.38;;;16.92;;
70414;SDS011;57837;52.064;113.478;2024-01-15T05:42:06;15.15;;;9.43;;
70414;SDS011;57837;52.064;113.478;2024-01-15T05:45:11;47.93;;;20.57;;
70414;SDS011;57837;52.064;113.478;2024-01-15T05:48:14;50.78;;;24.02;;
70414;SDS011;57837;52.064;113.478;2024-01-15T05:51:19;41.72;;;17.42;;
70414;SDS011;57837;52.064;113.478;2024-01-15T05:54:23;48.00;;;21.83;;
70414;SDS011;57837;52.064;113.478;2024-01-15T05:57:26;52.97;;;17.70;;
70414;SDS011;57837;52.064;113.478;2024-01-15T06:00:30;60.22;;;21.48;;
70414;SDS011;57837;52.064;113.478;2024-01-15T06:03:36;14.65;;;10.20;;
70414;SDS011;57837;52.064;113.478;2024-01-15T06:06:41;36.05;;;17.13;;
70414;SDS011;57837;52.064;113.478;2024-01-15T06:09:44;37.20;;;17.13;;
70414;SDS011;57837;52.064;113.478;2024-01-15T06:12:47;36.75;;;15.30;;
70414;SDS011;57837;52.064;113.478;2024-01-15T06:15:51;19.00;;;6.63;;
70414;SDS011;57837;52.064;113.478;2024-01-15T06:18:54;26.08;;;12.68;;
70414;SDS011;57837;52.064;113.478;2024-01-15T06:21:57;30.00;;;15.50;;
70414;SDS011;57837;52.064;113.478;2024-01-15T06:25:00;25.43;;;15.33;;
70414;SDS011;57837;52.064;113.478;2024-01-15T06:28:03;56.08;;;18.92;;
70414;SDS011;57837;52.064;113.478;2024-01-15T06:31:07;40.03;;;19.95;;
70414;SDS011;57837;52.064;113.478;2024-01-15T06:34:11;27.92;;;10.15;;
70414;SDS011;57837;52.064;113.478;2024-01-15T06:37:16;41.00;;;15.98;;
70414;SDS011;57837;52.064;113.478;2024-01-15T06:40:24;59.33;;;21.27;;
70414;SDS011;57837;52.064;113.478;2024-01-15T06:43:30;36.10;;;17.13;;
70414;SDS011;57837;52.064;113.478;2024-01-15T06:46:35;35.87;;;16.67;;
70414;SDS011;57837;52.064;113.478;2024-01-15T06:49:38;41.33;;;21.95;;
70414;SDS011;57837;52.064;113.478;2024-01-15T06:52:42;44.22;;;16.45;;
70414;SDS011;57837;52.064;113.478;2024-01-15T06:55:45;56.43;;;20.33;;
70414;SDS011;57837;52.064;113.478;2024-01-15T06:58:48;97.68;;;31.20;;
70414;SDS011;57837;52.064;113.478;2024-01-15T07:01:51;29.48;;;13.50;;
70414;SDS011;57837;52.064;113.478;2024-01-15T07:04:54;19.98;;;15.55;;
70414;SDS011;57837;52.064;113.478;2024-01-15T07:07:59;34.38;;;17.92;;
70414;SDS011;57837;52.064;113.478;2024-01-15T07:11:05;48.00;;;18.92;;
70414;SDS011;57837;52.064;113.478;2024-01-15T07:14:09;50.20;;;21.83;;
70414;SDS011;57837;52.064;113.478;2024-01-15T07:17:12;61.40;;;20.57;;
70414;SDS011;57837;52.064;113.478;2024-01-15T07:20:14;52.58;;;21.20;;
70414;SDS011;57837;52.064;113.478;2024-01-15T07:23:18;61.03;;;22.80;;
70414;SDS011;57837;52.064;113.478;2024-01-15T07:26:21;54.67;;;22.43;;
70414;SDS011;57837;52.064;113.478;2024-01-15T07:29:25;41.55;;;20.13;;
70414;SDS011;57837;52.064;113.478;2024-01-15T07:32:28;50.80;;;22.25;;
70414;SDS011;57837;52.064;113.478;2024-01-15T07:35:34;31.20;;;16.05;;
70414;SDS011;57837;52.064;113.478;2024-01-15T07:38:37;24.95;;;10.15;;
70414;SDS011;57837;52.064;113.478;2024-01-15T07:41:41;26.35;;;9.60;;
70414;SDS011;57837;52.064;113.478;2024-01-15T07:44:46;30.35;;;15.07;;
70414;SDS011;57837;52.064;113.478;2024-01-15T07:47:49;43.70;;;17.37;;
70414;SDS011;57837;52.064;113.478;2024-01-15T07:50:53;47.95;;;26.52;;
70414;SDS011;57837;52.064;113.478;2024-01-15T07:53:56;39.00;;;16.73;;
70414;SDS011;57837;52.064;113.478;2024-01-15T07:57:01;28.70;;;12.50;;
70414;SDS011;57837;52.064;113.478;2024-01-15T08:00:09;62.15;;;25.02;;
70414;SDS011;57837;52.064;113.478;2024-01-15T08:03:14;50.08;;;22.95;;
70414;SDS011;57837;52.064;113.478;2024-01-15T08:06:17;46.80;;;16.70;;
70414;SDS011;57837;52.064;113.478;2024-01-15T08:09:22;70.68;;;28.30;;
70414;SDS011;57837;52.064;113.478;2024-01-15T08:12:26;74.35;;;25.92;;
70414;SDS011;57837;52.064;113.478;2024-01-15T08:15:29;56.72;;;25.02;;
70414;SDS011;57837;52.064;113.478;2024-01-15T08:18:34;24.47;;;11.10;;
70414;SDS011;57837;52.064;113.478;2024-01-15T08:21:37;20.83;;;10.10;;
70414;SDS011;57837;52.064;113.478;2024-01-15T08:24:41;41.80;;;17.17;;
70414;SDS011;57837;52.064;113.478;2024-01-15T08:27:45;23.57;;;12.00;;
70414;SDS011;57837;52.064;113.478;2024-01-15T08:30:48;54.47;;;24.55;;
70414;SDS011;57837;52.064;113.478;2024-01-15T08:33:52;84.78;;;35.33;;
70414;SDS011;57837;52.064;113.478;2024-01-15T08:36:55;211.57;;;84.30;;
70414;SDS011;57837;52.064;113.478;2024-01-15T08:39:59;89.25;;;40.25;;
70414;SDS011;57837;52.064;113.478;2024-01-15T08:43:02;95.68;;;35.03;;
70414;SDS011;57837;52.064;113.478;2024-01-15T08:46:06;51.55;;;30.13;;
70414;SDS011;57837;52.064;113.478;2024-01-15T08:49:09;43.07;;;18.83;;
70414;SDS011;57837;52.064;113.478;2024-01-15T08:52:13;105.07;;;40.75;;
70414;SDS011;57837;52.064;113.478;2024-01-15T08:55:17;78.18;;;35.55;;
70414;SDS011;57837;52.064;113.478;2024-01-15T08:58:20;57.27;;;27.30;;
70414;SDS011;57837;52.064;113.478;2024-01-15T09:01:23;95.80;;;43.75;;
70414;SDS011;57837;52.064;113.478;2024-01-15T09:04:26;65.07;;;35.78;;
70414;SDS011;57837;52.064;113.478;2024-01-15T09:07:30;24.88;;;20.23;;
70414;SDS011;57837;52.064;113.478;2024-01-15T09:10:33;81.53;;;45.83;;
70414;SDS011;57837;52.064;113.478;2024-01-15T09:13:37;102.35;;;48.80;;
70414;SDS011;57837;52.064;113.478;2024-01-15T09:16:40;71.80;;;37.33;;
70414;SDS011;57837;52.064;113.478;2024-01-15T09:20:09;68.03;;;26.87;;
70414;SDS011;57837;52.064;113.478;2024-01-15T09:23:13;61.55;;;31.98;;
70414;SDS011;57837;52.064;113.478;2024-01-15T09:26:17;92.82;;;46.05;;
70414;SDS011;57837;52.064;113.478;2024-01-15T09:29:21;41.13;;;27.87;;
70414;SDS011;57837;52.064;113.478;2024-01-15T09:32:27;48.60;;;28.75;;
70414;SDS011;57837;52.064;113.478;2024-01-15T09:35:30;78.75;;;37.50;;
70414;SDS011;57837;52.064;113.478;2024-01-15T09:38:33;73.95;;;38.78;;
70414;SDS011;57837;52.064;113.478;2024-01-15T09:41:37;109.20;;;47.30;;
70414;SDS011;57837;52.064;113.478;2024-01-15T09:44:42;84.88;;;37.45;;
70414;SDS011;57837;52.064;113.478;2024-01-15T09:47:45;64.50;;;26.58;;
70414;SDS011;57837;52.064;113.478;2024-01-15T09:50:49;59.07;;;28.23;;
70414;SDS011;57837;52.064;113.478;2024-01-15T09:53:54;34.53;;;19.73;;
70414;SDS011;57837;52.064;113.478;2024-01-15T09:57:00;94.13;;;50.47;;
70414;SDS011;57837;52.064;113.478;2024-01-15T10:00:03;34.60;;;19.73;;
70414;SDS011;57837;52.064;113.478;2024-01-15T10:03:12;159.60;;;68.85;;
70414;SDS011;57837;52.064;113.478;2024-01-15T10:06:16;84.50;;;41.95;;
70414;SDS011;57837;52.064;113.478;2024-01-15T10:09:23;102.80;;;53.13;;
70414;SDS011;57837;52.064;113.478;2024-01-15T10:12:27;107.63;;;50.35;;
70414;SDS011;57837;52.064;113.478;2024-01-15T10:15:33;125.32;;;49.45;;
70414;SDS011;57837;52.064;113.478;2024-01-15T10:18:41;94.25;;;37.05;;
70414;SDS011;57837;52.064;113.478;2024-01-15T10:21:45;71.57;;;36.03;;
70414;SDS011;57837;52.064;113.478;2024-01-15T10:24:51;44.13;;;25.08;;
70414;SDS011;57837;52.064;113.478;2024-01-15T10:28:00;89.50;;;38.33;;
70414;SDS011;57837;52.064;113.478;2024-01-15T10:31:06;104.90;;;48.47;;
70414;SDS011;57837;52.064;113.478;2024-01-15T10:34:13;94.00;;;34.17;;
70414;SDS011;57837;52.064;113.478;2024-01-15T10:37:19;29.50;;;17.83;;
70414;SDS011;57837;52.064;113.478;2024-01-15T10:40:22;33.63;;;24.83;;
70414;SDS011;57837;52.064;113.478;2024-01-15T10:43:26;94.95;;;40.83;;
70414;SDS011;57837;52.064;113.478;2024-01-15T10:46:31;84.07;;;39.17;;
70414;SDS011;57837;52.064;113.478;2024-01-15T10:49:36;58.78;;;25.95;;
70414;SDS011;57837;52.064;113.478;2024-01-15T10:52:40;54.57;;;36.53;;
70414;SDS011;57837;52.064;113.478;2024-01-15T10:55:46;26.60;;;17.60;;
70414;SDS011;57837;52.064;113.478;2024-01-15T10:58:51;27.13;;;14.88;;
70414;SDS011;57837;52.064;113.478;2024-01-15T11:02:02;57.20;;;28.20;;
70414;SDS011;57837;52.064;113.478;2024-01-15T11:05:08;46.83;;;22.73;;
70414;SDS011;57837;52.064;113.478;2024-01-15T11:08:11;72.38;;;36.38;;
70414;SDS011;57837;52.064;113.478;2024-01-15T11:11:20;26.88;;;18.00;;
70414;SDS011;57837;52.064;113.478;2024-01-15T11:15:07;74.82;;;37.78;;
70414;SDS011;57837;52.064;113.478;2024-01-15T11:17:59;55.45;;;21.42;;
70414;SDS011;57837;52.064;113.478;2024-01-15T11:24:36;17.27;;;12.93;;
70414;SDS011;57837;52.064;113.478;2024-01-15T11:27:45;29.65;;;17.48;;
70414;SDS011;57837;52.064;113.478;2024-01-15T11:30:56;51.35;;;30.23;;
70414;SDS011;57837;52.064;113.478;2024-01-15T11:34:02;57.93;;;30.17;;
70414;SDS011;57837;52.064;113.478;2024-01-15T11:37:05;51.03;;;22.00;;
70414;SDS011;57837;52.064;113.478;2024-01-15T11:40:09;26.23;;;16.08;;
70414;SDS011;57837;52.064;113.478;2024-01-15T11:43:14;67.80;;;31.33;;
70414;SDS011;57837;52.064;113.478;2024-01-15T11:46:23;41.08;;;21.25;;
70414;SDS011;57837;52.064;113.478;2024-01-15T11:53:02;33.22;;;18.50;;
70414;SDS011;57837;52.064;113.478;2024-01-15T11:56:15;17.73;;;16.23;;
70414;SDS011;57837;52.064;113.478;2024-01-15T11:59:21;45.30;;;25.73;;
70414;SDS011;57837;52.064;113.478;2024-01-15T12:02:25;86.82;;;44.35;;
70414;SDS011;57837;52.064;113.478;2024-01-15T12:05:29;90.13;;;43.40;;
70414;SDS011;57837;52.064;113.478;2024-01-15T12:08:32;38.80;;;32.47;;
70414;SDS011;57837;52.064;113.478;2024-01-15T12:11:36;41.10;;;18.55;;
70414;SDS011;57837;52.064;113.478;2024-01-15T12:14:46;52.13;;;30.10;;
70414;SDS011;57837;52.064;113.478;2024-01-15T12:17:51;67.68;;;27.80;;
70414;SDS011;57837;52.064;113.478;2024-01-15T12:20:55;72.68;;;45.42;;
70414;SDS011;57837;52.064;113.478;2024-01-15T12:24:06;68.70;;;34.53;;
70414;SDS011;57837;52.064;113.478;2024-01-15T12:27:25;80.57;;;37.13;;
70414;SDS011;57837;52.064;113.478;2024-01-15T12:30:30;48.38;;;34.20;;
70414;SDS011;57837;52.064;113.478;2024-01-15T12:33:37;212.10;;;94.15;;
70414;SDS011;57837;52.064;113.478;2024-01-15T12:36:43;104.67;;;53.67;;
70414;SDS011;57837;52.064;113.478;2024-01-15T12:39:49;171.07;;;69.00;;
70414;SDS011;57837;52.064;113.478;2024-01-15T12:42:57;220.48;;;87.38;;
70414;SDS011;57837;52.064;113.478;2024-01-15T12:46:01;95.63;;;40.08;;
70414;SDS011;57837;52.064;113.478;2024-01-15T12:49:04;78.97;;;36.20;;
70414;SDS011;57837;52.064;113.478;2024-01-15T12:52:08;74.80;;;30.75;;
70414;SDS011;57837;52.064;113.478;2024-01-15T12:55:13;87.93;;;34.40;;
70414;SDS011;57837;52.064;113.478;2024-01-15T12:58:18;21.23;;;9.50;;
70414;SDS011;57837;52.064;113.478;2024-01-15T13:01:22;12.77;;;11.63;;
70414;SDS011;57837;52.064;113.478;2024-01-15T13:04:25;20.90;;;17.38;;
70414;SDS011;57837;52.064;113.478;2024-01-15T13:07:54;24.57;;;15.77;;
70414;SDS011;57837;52.064;113.478;2024-01-15T13:10:58;32.92;;;19.15;;
70414;SDS011;57837;52.064;113.478;2024-01-15T13:14:02;25.08;;;16.38;;
70414;SDS011;57837;52.064;113.478;2024-01-15T13:17:06;13.98;;;12.32;;
70414;SDS011;57837;52.064;113.478;2024-01-15T13:20:11;25.67;;;17.58;;
70414;SDS011;57837;52.064;113.478;2024-01-15T13:23:16;87.25;;;46.20;;
70414;SDS011;57837;52.064;113.478;2024-01-15T13:26:19;30.48;;;24.13;;
70414;SDS011;57837;52.064;113.478;2024-01-15T13:29:23;53.23;;;20.33;;
70414;SDS011;57837;52.064;113.478;2024-01-15T13:32:28;31.38;;;28.20;;
70414;SDS011;57837;52.064;113.478;2024-01-15T13:35:32;98.20;;;47.60;;
70414;SDS011;57837;52.064;113.478;2024-01-15T13:38:36;72.00;;;35.77;;
70414;SDS011;57837;52.064;113.478;2024-01-15T13:41:40;42.42;;;30.42;;
70414;SDS011;57837;52.064;113.478;2024-01-15T13:44:44;66.30;;;37.47;;
70414;SDS011;57837;52.064;113.478;2024-01-15T13:47:47;84.30;;;35.42;;
70414;SDS011;57837;52.064;113.478;2024-01-15T13:50:52;91.32;;;48.53;;
70414;SDS011;57837;52.064;113.478;2024-01-15T13:53:56;124.70;;;66.53;;
70414;SDS011;57837;52.064;113.478;2024-01-15T13:57:01;50.53;;;39.60;;
70414;SDS011;57837;52.064;113.478;2024-01-15T14:00:07;79.00;;;51.07;;
70414;SDS011;57837;52.064;113.478;2024-01-15T14:03:15;76.78;;;49.20;;
70414;SDS011;57837;52.064;113.478;2024-01-15T14:06:18;122.75;;;59.78;;
70414;SDS011;57837;52.064;113.478;2024-01-15T14:09:23;57.43;;;36.00;;
70414;SDS011;57837;52.064;113.478;2024-01-15T14:12:29;115.28;;;53.38;;
70414;SDS011;57837;52.064;113.478;2024-01-15T14:15:32;41.88;;;21.88;;
70414;SDS011;57837;52.064;113.478;2024-01-15T14:18:36;31.17;;;27.85;;
70414;SDS011;57837;52.064;113.478;2024-01-15T14:21:39;198.50;;;94.50;;
70414;SDS011;57837;52.064;113.478;2024-01-15T14:24:43;248.43;;;125.80;;
70414;SDS011;57837;52.064;113.478;2024-01-15T14:27:47;73.63;;;45.97;;
70414;SDS011;57837;52.064;113.478;2024-01-15T14:30:51;192.37;;;93.10;;
70414;SDS011;57837;52.064;113.478;2024-01-15T14:33:55;136.98;;;87.72;;
70414;SDS011;57837;52.064;113.478;2024-01-15T14:36:59;78.15;;;42.50;;
70414;SDS011;57837;52.064;113.478;2024-01-15T14:40:05;79.93;;;50.07;;
70414;SDS011;57837;52.064;113.478;2024-01-15T14:43:13;70.13;;;52.40;;
70414;SDS011;57837;52.064;113.478;2024-01-15T14:46:16;102.03;;;70.88;;
70414;SDS011;57837;52.064;113.478;2024-01-15T14:49:19;68.95;;;57.08;;
70414;SDS011;57837;52.064;113.478;2024-01-15T14:52:23;104.47;;;58.05;;
70414;SDS011;57837;52.064;113.478;2024-01-15T14:55:26;79.68;;;50.30;;
70414;SDS011;57837;52.064;113.478;2024-01-15T14:58:30;157.45;;;85.95;;
70414;SDS011;57837;52.064;113.478;2024-01-15T15:01:34;115.67;;;65.50;;
70414;SDS011;57837;52.064;113.478;2024-01-15T15:04:38;120.03;;;59.13;;
70414;SDS011;57837;52.064;113.478;2024-01-15T15:07:43;100.43;;;55.20;;
70414;SDS011;57837;52.064;113.478;2024-01-15T15:10:46;95.73;;;76.97;;
70414;SDS011;57837;52.064;113.478;2024-01-15T15:13:50;80.22;;;57.33;;
70414;SDS011;57837;52.064;113.478;2024-01-15T15:16:53;97.55;;;47.28;;
70414;SDS011;57837;52.064;113.478;2024-01-15T15:19:56;83.15;;;57.90;;
70414;SDS011;57837;52.064;113.478;2024-01-15T15:22:59;91.43;;;48.10;;
70414;SDS011;57837;52.064;113.478;2024-01-15T15:26:03;72.43;;;37.95;;
70414;SDS011;57837;52.064;113.478;2024-01-15T15:29:07;107.38;;;50.20;;
70414;SDS011;57837;52.064;113.478;2024-01-15T15:32:10;57.83;;;32.63;;
70414;SDS011;57837;52.064;113.478;2024-01-15T15:35:16;73.63;;;49.42;;
70414;SDS011;57837;52.064;113.478;2024-01-15T15:38:20;46.22;;;31.05;;
70414;SDS011;57837;52.064;113.478;2024-01-15T15:41:25;75.53;;;43.00;;
70414;SDS011;57837;52.064;113.478;2024-01-15T15:44:30;107.60;;;67.07;;
70414;SDS011;57837;52.064;113.478;2024-01-15T15:47:35;93.68;;;46.35;;
70414;SDS011;57837;52.064;113.478;2024-01-15T15:50:38;59.38;;;43.97;;
70414;SDS011;57837;52.064;113.478;2024-01-15T15:53:41;76.95;;;33.08;;
70414;SDS011;57837;52.064;113.478;2024-01-15T15:56:45;39.58;;;26.35;;
70414;SDS011;57837;52.064;113.478;2024-01-15T15:59:54;47.15;;;38.22;;
70414;SDS011;57837;52.064;113.478;2024-01-15T16:02:58;43.53;;;29.27;;
70414;SDS011;57837;52.064;113.478;2024-01-15T16:06:02;92.28;;;54.38;;
70414;SDS011;57837;52.064;113.478;2024-01-15T16:09:06;216.02;;;60.05;;
70414;SDS011;57837;52.064;113.478;2024-01-15T16:12:09;67.07;;;52.80;;
70414;SDS011;57837;52.064;113.478;2024-01-15T16:18:26;64.95;;;45.33;;
70414;SDS011;57837;52.064;113.478;2024-01-15T16:21:50;39.80;;;31.95;;
70414;SDS011;57837;52.064;113.478;2024-01-15T16:25:14;82.63;;;55.60;;
70414;SDS011;57837;52.064;113.478;2024-01-15T16:28:19;86.57;;;63.55;;
70414;SDS011;57837;52.064;113.478;2024-01-15T16:31:23;65.43;;;41.20;;
70414;SDS011;57837;52.064;113.478;2024-01-15T16:34:26;131.97;;;64.20;;
70414;SDS011;57837;52.064;113.478;2024-01-15T16:37:30;84.18;;;45.33;;
70414;SDS011;57837;52.064;113.478;2024-01-15T16:40:34;95.60;;;47.67;;
70414;SDS011;57837;52.064;113.478;2024-01-15T16:43:40;77.07;;;45.53;;
70414;SDS011;57837;52.064;113.478;2024-01-15T16:46:44;71.43;;;31.02;;
70414;SDS011;57837;52.064;113.478;2024-01-15T16:49:47;56.00;;;30.55;;
70414;SDS011;57837;52.064;113.478;2024-01-15T16:52:50;109.53;;;58.63;;
70414;SDS011;57837;52.064;113.478;2024-01-15T16:55:53;84.05;;;48.45;;
70414;SDS011;57837;52.064;113.478;2024-01-15T16:58:57;62.33;;;32.67;;
70414;SDS011;57837;52.064;113.478;2024-01-15T17:02:01;61.40;;;41.72;;
70414;SDS011;57837;52.064;113.478;2024-01-15T17:05:06;48.93;;;34.33;;
70414;SDS011;57837;52.064;113.478;2024-01-15T17:08:09;48.78;;;28.60;;
70414;SDS011;57837;52.064;113.478;2024-01-15T17:11:12;101.30;;;42.97;;
70414;SDS011;57837;52.064;113.478;2024-01-15T17:14:15;57.23;;;30.93;;
70414;SDS011;57837;52.064;113.478;2024-01-15T17:17:21;39.40;;;28.02;;
70414;SDS011;57837;52.064;113.478;2024-01-15T17:20:25;80.50;;;47.20;;
70414;SDS011;57837;52.064;113.478;2024-01-15T17:23:29;72.13;;;27.25;;
70414;SDS011;57837;52.064;113.478;2024-01-15T17:26:33;48.47;;;33.92;;
70414;SDS011;57837;52.064;113.478;2024-01-15T17:29:37;94.68;;;54.30;;
70414;SDS011;57837;52.064;113.478;2024-01-15T17:32:40;103.35;;;44.58;;
70414;SDS011;57837;52.064;113.478;2024-01-15T17:35:51;79.33;;;40.70;;